createdAt,value
2024-04-14T00:00:12.855Z,6.40
2024-04-14T00:02:39.670Z,5.90
2024-04-14T00:05:06.747Z,7.07
2024-04-14T00:07:33.604Z,6.05
2024-04-14T00:10:00.467Z,6.35
2024-04-14T00:12:27.243Z,6.50
2024-04-14T00:14:53.964Z,6.40
2024-04-14T00:17:20.666Z,6.00
2024-04-14T00:19:52.910Z,6.05
2024-04-14T00:22:20.312Z,6.28
2024-04-14T00:24:48.337Z,6.10
2024-04-14T00:27:15.133Z,6.13
2024-04-14T00:29:41.846Z,6.00
2024-04-14T00:32:08.690Z,5.55
2024-04-14T00:34:35.494Z,5.45
2024-04-14T00:37:02.293Z,6.20
2024-04-14T00:39:29.206Z,5.90
2024-04-14T00:41:56.335Z,5.43
2024-04-14T00:44:23.043Z,5.72
2024-04-14T00:46:49.848Z,5.40
2024-04-14T00:49:16.708Z,5.50
2024-04-14T00:51:43.546Z,5.93
2024-04-14T00:54:11.079Z,5.03
2024-04-14T00:56:37.786Z,6.10
2024-04-14T00:59:05.390Z,5.13
2024-04-14T01:01:33.415Z,5.57
2024-04-14T01:04:00.299Z,5.32
2024-04-14T01:06:27.128Z,5.38
2024-04-14T01:08:54.019Z,5.78
2024-04-14T01:11:20.974Z,4.90
2024-04-14T01:13:48.659Z,5.20
2024-04-14T01:16:15.363Z,4.80
2024-04-14T01:18:42.111Z,5.93
2024-04-14T01:21:08.845Z,4.72
2024-04-14T01:23:36.586Z,5.05
2024-04-14T01:26:03.322Z,4.97
2024-04-14T01:28:30.061Z,5.35
2024-04-14T01:30:57.009Z,5.05
2024-04-14T01:33:23.801Z,5.10
2024-04-14T01:35:50.495Z,5.18
2024-04-14T01:38:24.582Z,5.03
2024-04-14T01:40:53.053Z,5.13
2024-04-14T01:43:19.864Z,4.97
2024-04-14T01:45:47.029Z,5.00
2024-04-14T01:48:13.992Z,4.78
2024-04-14T01:50:40.787Z,4.78
2024-04-14T01:53:07.553Z,4.90
2024-04-14T01:55:34.290Z,4.95
2024-04-14T01:58:01.240Z,4.82
2024-04-14T02:00:28.114Z,4.85
2024-04-14T02:02:57.269Z,4.43
2024-04-14T02:05:24.136Z,5.03
2024-04-14T02:07:50.823Z,6.15
2024-04-14T02:10:17.529Z,5.25
2024-04-14T02:12:44.283Z,5.25
2024-04-14T02:15:11.386Z,6.18
2024-04-14T02:17:38.293Z,5.78
2024-04-14T02:20:05.636Z,5.75
2024-04-14T02:22:32.522Z,6.07
2024-04-14T02:24:59.296Z,6.15
2024-04-14T02:27:26.118Z,6.35
2024-04-14T02:29:53.224Z,5.47
2024-04-14T02:32:20.299Z,5.97
2024-04-14T02:34:47.787Z,5.55
2024-04-14T02:37:14.475Z,5.97
2024-04-14T02:39:41.211Z,6.03
2024-04-14T02:42:07.961Z,5.97
2024-04-14T02:44:34.649Z,6.05
2024-04-14T02:47:01.320Z,6.15
2024-04-14T02:49:30.137Z,6.13
2024-04-14T02:51:57.610Z,5.43
2024-04-14T02:54:24.965Z,5.10
2024-04-14T02:56:51.969Z,5.03
2024-04-14T02:59:18.776Z,4.68
2024-04-14T03:01:46.848Z,3.83
2024-04-14T03:04:13.784Z,4.30
2024-04-14T03:06:40.718Z,3.50
2024-04-14T03:09:07.457Z,4.28
2024-04-14T03:11:34.200Z,4.18
2024-04-14T03:14:00.952Z,3.42
2024-04-14T03:16:27.647Z,4.43
2024-04-14T03:18:54.795Z,4.05
2024-04-14T03:21:24.237Z,3.80
2024-04-14T03:23:52.863Z,3.50
2024-04-14T03:26:19.565Z,4.22
2024-04-14T03:28:46.451Z,3.60
2024-04-14T03:31:13.210Z,4.40
2024-04-14T03:33:40.044Z,4.13
2024-04-14T03:36:10.542Z,5.03
2024-04-14T03:38:37.268Z,4.40
2024-04-14T03:41:04.372Z,5.35
2024-04-14T03:43:31.128Z,5.30
2024-04-14T03:45:58.108Z,4.15
2024-04-14T03:48:25.430Z,4.03
2024-04-14T03:50:52.433Z,4.05
2024-04-14T03:53:19.164Z,4.22
2024-04-14T03:55:45.860Z,4.38
2024-04-14T03:58:12.548Z,4.97
2024-04-14T04:00:39.507Z,4.13
2024-04-14T04:03:06.303Z,4.97
2024-04-14T04:05:32.989Z,4.45
2024-04-14T04:07:59.711Z,5.40
2024-04-14T04:10:26.428Z,4.72
2024-04-14T04:12:53.186Z,5.68
2024-04-14T04:15:19.983Z,5.00
2024-04-14T04:17:47.195Z,5.57
2024-04-14T04:20:14.329Z,5.18
2024-04-14T04:22:41.011Z,6.05
2024-04-14T04:25:07.839Z,5.90
2024-04-14T04:27:34.689Z,5.38
2024-04-14T04:30:01.398Z,5.60
2024-04-14T04:32:28.219Z,5.25
2024-04-14T04:34:54.932Z,4.63
2024-04-14T04:37:21.612Z,4.68
2024-04-14T04:39:50.017Z,4.78
2024-04-14T04:42:16.787Z,4.35
2024-04-14T04:44:43.615Z,4.20
2024-04-14T04:47:10.339Z,3.78
2024-04-14T04:49:37.583Z,3.85
2024-04-14T04:52:04.677Z,4.13
2024-04-14T04:54:31.489Z,3.90
2024-04-14T04:56:58.222Z,3.50
2024-04-14T04:59:25.034Z,4.72
2024-04-14T05:01:51.759Z,3.95
2024-04-14T05:04:18.609Z,3.60
2024-04-14T05:06:45.371Z,3.88
2024-04-14T05:09:12.234Z,3.60
2024-04-14T05:11:38.947Z,3.83
2024-04-14T05:14:05.620Z,3.67
2024-04-14T05:16:32.336Z,3.08
2024-04-14T05:18:59.186Z,3.42
2024-04-14T05:21:26.093Z,3.97
2024-04-14T05:23:52.901Z,4.25
2024-04-14T05:26:19.727Z,4.15
2024-04-14T05:28:46.388Z,4.05
2024-04-14T05:31:13.182Z,3.72
2024-04-14T05:33:39.911Z,3.83
2024-04-14T05:36:07.279Z,3.97
2024-04-14T05:38:36.789Z,3.90
2024-04-14T05:41:03.732Z,3.88
2024-04-14T05:43:30.425Z,3.00
2024-04-14T05:45:57.147Z,4.03
2024-04-14T05:48:23.903Z,3.50
2024-04-14T05:50:50.613Z,3.15
2024-04-14T05:53:17.362Z,2.35
2024-04-14T05:55:44.074Z,3.38
2024-04-14T05:58:10.749Z,3.05
2024-04-14T06:00:37.802Z,3.83
2024-04-14T06:03:04.967Z,2.45
2024-04-14T06:05:31.694Z,2.85
2024-04-14T06:07:58.412Z,3.10
2024-04-14T06:10:25.860Z,3.58
2024-04-14T06:12:52.533Z,3.22
2024-04-14T06:15:19.315Z,3.65
2024-04-14T06:17:46.048Z,3.40
2024-04-14T06:20:12.924Z,3.40
2024-04-14T06:22:39.697Z,3.45
2024-04-14T06:25:06.570Z,3.78
2024-04-14T06:27:33.401Z,3.85
2024-04-14T06:30:00.221Z,4.28
2024-04-14T06:32:26.971Z,3.97
2024-04-14T06:34:54.220Z,3.97
2024-04-14T06:37:24.698Z,5.22
2024-04-14T06:39:51.486Z,4.68
2024-04-14T06:42:18.226Z,4.80
2024-04-14T06:44:45.035Z,5.80
2024-04-14T06:47:12.217Z,4.55
2024-04-14T06:49:39.184Z,5.22
2024-04-14T06:52:06.486Z,5.60
2024-04-14T06:54:33.429Z,4.65
2024-04-14T06:57:00.134Z,4.47
2024-04-14T06:59:26.819Z,5.00
2024-04-14T07:01:53.681Z,5.03
2024-04-14T07:04:20.564Z,4.10
2024-04-14T07:06:47.495Z,4.75
2024-04-14T07:09:14.208Z,6.80
2024-04-14T07:11:41.025Z,7.03
2024-04-14T07:14:10.827Z,4.65
2024-04-14T07:16:37.511Z,4.47
2024-04-14T07:19:07.372Z,4.00
2024-04-14T07:21:37.661Z,3.95
2024-04-14T07:24:04.862Z,4.68
2024-04-14T07:26:31.549Z,4.70
2024-04-14T07:28:58.563Z,3.78
2024-04-14T07:31:25.855Z,3.88
2024-04-14T07:34:04.751Z,3.10
2024-04-14T07:36:31.641Z,3.58
2024-04-14T07:38:58.743Z,3.40
2024-04-14T07:41:25.455Z,3.97
2024-04-14T07:43:55.435Z,3.53
2024-04-14T07:46:23.733Z,3.85
2024-04-14T07:48:51.391Z,3.25
2024-04-14T07:51:18.158Z,3.55
2024-04-14T07:53:44.880Z,4.05
2024-04-14T07:56:11.634Z,4.00
2024-04-14T07:58:38.319Z,4.32
2024-04-14T08:01:05.979Z,3.45
2024-04-14T08:03:42.732Z,4.25
2024-04-14T08:06:17.398Z,3.10
2024-04-14T08:08:44.168Z,3.30
2024-04-14T08:11:11.155Z,2.75
2024-04-14T08:13:37.875Z,3.30
2024-04-14T08:16:04.902Z,3.72
2024-04-14T08:18:31.688Z,3.67
2024-04-14T08:21:03.580Z,3.13
2024-04-14T08:23:30.610Z,3.83
2024-04-14T08:25:57.441Z,3.40
2024-04-14T08:28:24.284Z,3.55
2024-04-14T08:30:51.131Z,3.47
2024-04-14T08:33:17.884Z,3.63
2024-04-14T08:35:44.580Z,3.33
2024-04-14T08:38:11.985Z,2.97
2024-04-14T08:40:38.785Z,3.50
2024-04-14T08:43:05.529Z,3.03
2024-04-14T08:45:34.470Z,3.50
2024-04-14T08:48:03.922Z,3.42
2024-04-14T08:50:31.513Z,2.88
2024-04-14T08:52:58.352Z,3.35
2024-04-14T08:55:25.149Z,3.10
2024-04-14T08:57:52.421Z,3.88
2024-04-14T09:00:20.955Z,2.85
2024-04-14T09:02:47.923Z,4.07
2024-04-14T09:05:14.662Z,3.22
2024-04-14T09:07:41.415Z,3.38
2024-04-14T09:10:08.511Z,3.30
2024-04-14T09:12:35.324Z,3.22
2024-04-14T09:15:05.793Z,3.30
2024-04-14T09:17:36.608Z,3.25
2024-04-14T09:20:03.407Z,2.97
2024-04-14T09:22:30.360Z,3.80
2024-04-14T09:24:57.116Z,3.42
2024-04-14T09:27:24.634Z,3.33
2024-04-14T09:29:51.663Z,3.60
2024-04-14T09:32:18.370Z,3.60
2024-04-14T09:34:45.170Z,3.30
2024-04-14T09:37:14.030Z,3.80
2024-04-14T09:39:42.706Z,2.78
2024-04-14T09:42:09.439Z,2.83
2024-04-14T09:44:37.899Z,2.08
2024-04-14T09:47:05.531Z,3.00
2024-04-14T09:49:33.553Z,2.80
2024-04-14T09:52:01.556Z,2.50
2024-04-14T09:54:30.380Z,2.30
2024-04-14T09:56:57.126Z,2.88
2024-04-14T09:59:23.856Z,2.55
2024-04-14T10:01:51.739Z,2.47
2024-04-14T10:04:19.550Z,2.13
2024-04-14T10:06:47.042Z,2.88
2024-04-14T10:09:13.823Z,2.92
2024-04-14T10:11:43.629Z,2.80
2024-04-14T10:14:13.532Z,2.45
2024-04-14T10:16:40.300Z,2.72
2024-04-14T10:19:08.595Z,2.75
2024-04-14T10:21:35.491Z,3.05
2024-04-14T10:24:05.497Z,3.15
2024-04-14T10:26:35.104Z,3.58
2024-04-14T10:29:09.801Z,3.45
2024-04-14T10:31:37.010Z,3.67
2024-04-14T10:34:10.674Z,3.40
2024-04-14T10:36:41.281Z,5.38
2024-04-14T10:39:11.761Z,4.45
2024-04-14T10:41:38.500Z,3.97
2024-04-14T10:44:15.991Z,4.35
2024-04-14T10:46:44.149Z,4.25
2024-04-14T10:49:11.527Z,4.00
2024-04-14T10:51:39.416Z,3.63
2024-04-14T10:54:06.406Z,3.55
2024-04-14T10:56:33.084Z,3.78
2024-04-14T10:58:59.922Z,3.55
2024-04-14T11:01:28.184Z,3.13
2024-04-14T11:03:56.541Z,3.80
2024-04-14T11:06:23.904Z,3.30
2024-04-14T11:08:51.163Z,3.78
2024-04-14T11:11:18.540Z,3.30
2024-04-14T11:13:45.724Z,3.22
2024-04-14T11:16:12.498Z,3.58
2024-04-14T11:18:39.663Z,3.17
2024-04-14T11:21:06.637Z,2.83
2024-04-14T11:23:33.331Z,2.60
2024-04-14T11:26:00.054Z,2.60
2024-04-14T11:28:30.719Z,3.38
2024-04-14T11:30:57.751Z,3.30
2024-04-14T11:33:25.019Z,3.20
2024-04-14T11:36:02.189Z,3.08
2024-04-14T11:38:29.786Z,2.80
2024-04-14T11:40:56.744Z,3.03
2024-04-14T11:43:23.549Z,2.72
2024-04-14T11:45:53.473Z,2.92
2024-04-14T11:48:25.963Z,2.42
2024-04-14T11:50:53.352Z,3.25
2024-04-14T11:53:20.555Z,2.40
2024-04-14T11:55:47.318Z,2.03
2024-04-14T11:58:17.850Z,2.58
2024-04-14T12:00:44.926Z,2.00
2024-04-14T12:03:12.943Z,1.92
2024-04-14T12:05:39.842Z,2.38
2024-04-14T12:08:06.968Z,2.03
2024-04-14T12:10:34.349Z,2.30
2024-04-14T12:13:01.402Z,2.40
2024-04-14T12:15:28.303Z,2.33
2024-04-14T12:17:55.115Z,2.65
2024-04-14T12:20:21.979Z,1.98
2024-04-14T12:22:48.760Z,2.22
2024-04-14T12:25:15.819Z,2.17
2024-04-14T12:27:42.616Z,2.30
2024-04-14T12:30:10.564Z,1.63
2024-04-14T12:32:37.642Z,2.40
2024-04-14T12:35:05.112Z,1.90
2024-04-14T12:37:31.792Z,2.53
2024-04-14T12:39:58.636Z,2.55
2024-04-14T12:42:25.730Z,1.73
2024-04-14T12:44:52.392Z,1.65
2024-04-14T12:47:19.081Z,2.35
2024-04-14T12:49:45.780Z,2.40
2024-04-14T12:52:12.500Z,1.85
2024-04-14T12:54:39.241Z,1.58
2024-04-14T12:57:05.992Z,2.25
2024-04-14T12:59:32.760Z,2.03
2024-04-14T13:01:59.522Z,3.10
2024-04-14T13:04:26.273Z,1.88
2024-04-14T13:06:53.978Z,2.03
2024-04-14T13:09:20.879Z,1.60
2024-04-14T13:11:47.585Z,1.98
2024-04-14T13:14:14.304Z,1.58
2024-04-14T13:16:41.091Z,2.47
2024-04-14T13:19:07.924Z,1.83
2024-04-14T13:21:38.628Z,1.70
2024-04-14T13:24:06.089Z,1.98
2024-04-14T13:26:34.361Z,2.08
2024-04-14T13:29:01.133Z,1.52
2024-04-14T13:31:27.926Z,1.90
2024-04-14T13:33:54.795Z,1.75
2024-04-14T13:36:21.509Z,1.60
2024-04-14T13:38:48.273Z,2.05
2024-04-14T13:41:14.967Z,1.48
2024-04-14T13:43:41.625Z,1.80
2024-04-14T13:46:08.450Z,1.60
2024-04-14T13:48:35.186Z,1.65
2024-04-14T13:51:03.004Z,1.63
2024-04-14T13:53:29.706Z,1.85
2024-04-14T13:55:56.393Z,1.60
2024-04-14T13:58:23.065Z,1.42
2024-04-14T14:00:50.343Z,1.83
2024-04-14T14:03:17.242Z,1.83
2024-04-14T14:05:47.194Z,2.08
2024-04-14T14:08:13.915Z,1.73
2024-04-14T14:10:42.412Z,1.50
2024-04-14T14:13:09.542Z,1.40
2024-04-14T14:15:36.438Z,1.80
2024-04-14T14:18:03.516Z,1.55
2024-04-14T14:20:30.309Z,1.90
2024-04-14T14:22:57.209Z,1.70
2024-04-14T14:25:23.993Z,1.67
2024-04-14T14:27:50.725Z,1.48
2024-04-14T14:30:17.476Z,1.70
2024-04-14T14:32:44.220Z,1.90
2024-04-14T14:35:29.737Z,2.08
2024-04-14T14:37:58.152Z,1.83
2024-04-14T14:40:26.453Z,1.40
2024-04-14T14:42:53.250Z,1.80
2024-04-14T14:45:19.986Z,1.65
2024-04-14T14:47:47.329Z,1.55
2024-04-14T14:50:17.434Z,1.70
2024-04-14T14:52:45.163Z,1.60
2024-04-14T14:55:11.922Z,1.70
2024-04-14T14:57:38.738Z,1.67
2024-04-14T15:00:06.893Z,1.70
2024-04-14T15:02:34.754Z,1.67
2024-04-14T15:05:01.616Z,1.88
2024-04-14T15:07:28.497Z,1.63
2024-04-14T15:09:58.293Z,1.90
2024-04-14T15:12:25.073Z,1.63
2024-04-14T15:14:51.784Z,1.70
2024-04-14T15:17:18.673Z,1.40
2024-04-14T15:19:45.661Z,1.33
2024-04-14T15:22:14.640Z,1.90
2024-04-14T15:24:41.945Z,2.20
2024-04-14T15:27:08.732Z,1.67
2024-04-14T15:29:35.647Z,1.80
2024-04-14T15:32:02.833Z,1.63
2024-04-14T15:34:29.632Z,1.40
2024-04-14T15:36:56.375Z,1.83
2024-04-14T15:39:23.090Z,1.60
2024-04-14T15:41:49.832Z,1.80
2024-04-14T15:44:22.013Z,2.08
2024-04-14T15:46:53.922Z,1.58
2024-04-14T15:49:20.764Z,1.98
2024-04-14T15:51:47.480Z,1.70
2024-04-14T15:54:16.343Z,1.70
2024-04-14T15:56:43.068Z,1.63
2024-04-14T15:59:10.627Z,1.90
2024-04-14T16:01:37.602Z,1.77
2024-04-14T16:04:04.723Z,1.52
2024-04-14T16:06:31.475Z,1.70
2024-04-14T16:08:58.627Z,1.63
2024-04-14T16:11:25.921Z,2.33
2024-04-14T16:13:53.982Z,1.85
2024-04-14T16:16:21.382Z,1.98
2024-04-14T16:18:48.800Z,1.77
2024-04-14T16:21:15.931Z,1.90
2024-04-14T16:23:47.103Z,2.10
2024-04-14T16:26:14.288Z,1.53
2024-04-14T16:28:42.020Z,2.03
2024-04-14T16:31:09.261Z,1.40
2024-04-14T16:33:36.495Z,1.95
2024-04-14T16:36:03.423Z,1.88
2024-04-14T16:38:30.560Z,2.38
2024-04-14T16:40:57.546Z,1.67
2024-04-14T16:43:24.270Z,1.60
2024-04-14T16:45:51.273Z,1.92
2024-04-14T16:48:20.469Z,2.58
2024-04-14T16:50:47.354Z,2.13
2024-04-14T16:53:14.197Z,2.50
2024-04-14T16:55:40.917Z,2.05
2024-04-14T16:58:07.774Z,2.35
2024-04-14T17:00:36.896Z,2.50
2024-04-14T17:03:04.078Z,2.33
2024-04-14T17:05:30.924Z,1.95
2024-04-14T17:07:58.209Z,2.03
2024-04-14T17:10:25.021Z,2.00
2024-04-14T17:12:51.756Z,1.98
2024-04-14T17:15:18.619Z,1.85
2024-04-14T17:17:45.379Z,1.73
2024-04-14T17:20:12.198Z,2.15
2024-04-14T17:22:39.113Z,2.20
2024-04-14T17:25:06.340Z,1.85
2024-04-14T17:27:33.080Z,2.50
2024-04-14T17:29:59.847Z,1.67
2024-04-14T17:32:26.610Z,2.58
2024-04-14T17:34:54.372Z,1.85
2024-04-14T17:37:21.435Z,1.90
2024-04-14T17:39:48.237Z,2.42
2024-04-14T17:42:14.955Z,2.17
2024-04-14T17:44:41.680Z,2.05
2024-04-14T17:47:08.912Z,2.35
2024-04-14T17:49:35.961Z,1.90
2024-04-14T17:52:02.849Z,2.20
2024-04-14T17:54:29.591Z,2.05
2024-04-14T17:56:56.808Z,2.28
2024-04-14T17:59:23.604Z,2.20
2024-04-14T18:01:50.439Z,2.60
2024-04-14T18:04:17.232Z,2.47
2024-04-14T18:06:44.020Z,2.30
2024-04-14T18:09:10.966Z,2.05
2024-04-14T18:11:38.741Z,2.30
2024-04-14T18:14:06.347Z,2.10
2024-04-14T18:16:33.136Z,2.00
2024-04-14T18:18:59.945Z,2.08
2024-04-14T18:21:26.842Z,2.15
2024-04-14T18:23:53.529Z,2.28
2024-04-14T18:26:20.257Z,1.63
2024-04-14T18:28:49.724Z,2.17
2024-04-14T18:31:16.495Z,2.35
2024-04-14T18:33:43.297Z,1.92
2024-04-14T18:36:17.907Z,2.47
2024-04-14T18:38:46.122Z,2.53
2024-04-14T18:41:12.966Z,2.20
2024-04-14T18:43:40.046Z,2.25
2024-04-14T18:46:07.067Z,4.80
2024-04-14T18:48:36.503Z,3.65
2024-04-14T18:51:04.610Z,3.42
2024-04-14T18:53:31.498Z,2.30
2024-04-14T18:56:00.042Z,2.28
2024-04-14T18:58:30.689Z,2.75
2024-04-14T19:03:25.870Z,2.50
2024-04-14T19:05:52.592Z,2.50
2024-04-14T19:08:26.671Z,1.85
2024-04-14T19:10:53.539Z,2.20
2024-04-14T19:13:20.313Z,2.65
2024-04-14T19:15:48.723Z,4.82
2024-04-14T19:18:15.714Z,4.50
2024-04-14T19:20:42.690Z,3.80
2024-04-14T19:23:09.647Z,3.17
2024-04-14T19:25:36.398Z,3.53
2024-04-14T19:28:04.267Z,3.20
2024-04-14T19:30:31.165Z,4.10
2024-04-14T19:32:57.928Z,3.78
2024-04-14T19:35:25.819Z,3.42
2024-04-14T19:37:53.694Z,2.83
2024-04-14T19:40:20.627Z,2.90
2024-04-14T19:42:47.459Z,3.08
2024-04-14T19:45:14.475Z,2.92
2024-04-14T19:47:41.279Z,3.17
2024-04-14T19:50:08.180Z,2.78
2024-04-14T19:52:34.952Z,2.55
2024-04-14T19:55:02.646Z,2.67
2024-04-14T19:57:29.941Z,2.97
2024-04-14T19:59:57.594Z,2.83
2024-04-14T20:02:24.387Z,3.28
2024-04-14T20:04:52.087Z,2.92
2024-04-14T20:07:20.342Z,2.55
2024-04-14T20:09:47.147Z,3.00
2024-04-14T20:12:13.869Z,2.90
2024-04-14T20:14:40.750Z,3.20
2024-04-14T20:17:07.444Z,2.88
2024-04-14T20:19:34.389Z,3.20
2024-04-14T20:22:01.406Z,3.38
2024-04-14T20:24:28.151Z,3.13
2024-04-14T20:26:55.712Z,2.72
2024-04-14T20:29:22.564Z,3.55
2024-04-14T20:31:49.257Z,2.70
2024-04-14T20:34:16.167Z,2.47
2024-04-14T20:36:42.973Z,3.00
2024-04-14T20:39:10.786Z,3.33
2024-04-14T20:41:37.636Z,2.88
2024-04-14T20:44:04.452Z,2.95
2024-04-14T20:46:31.129Z,3.53
2024-04-14T20:48:57.960Z,3.08
2024-04-14T20:51:24.736Z,3.15
2024-04-14T20:53:51.439Z,3.03
2024-04-14T20:56:18.147Z,3.65
2024-04-14T20:58:48.482Z,3.33
2024-04-14T21:01:15.818Z,3.47
2024-04-14T21:03:42.793Z,3.20
2024-04-14T21:06:09.677Z,3.30
2024-04-14T21:08:36.574Z,3.10
2024-04-14T21:11:07.060Z,2.97
2024-04-14T21:13:34.128Z,2.85
2024-04-14T21:16:09.132Z,3.47
2024-04-14T21:18:36.136Z,3.67
2024-04-14T21:21:03.130Z,3.28
2024-04-14T21:23:30.111Z,3.53
2024-04-14T21:26:04.664Z,3.72
2024-04-14T21:28:33.519Z,3.78
2024-04-14T21:31:00.886Z,4.03
2024-04-14T21:33:28.353Z,3.85
2024-04-14T21:35:55.732Z,3.85
2024-04-14T21:38:23.588Z,3.88
2024-04-14T21:40:56.438Z,3.92
2024-04-14T21:43:25.936Z,3.83
2024-04-14T21:45:59.435Z,3.90
2024-04-14T21:48:30.748Z,3.53
2024-04-14T21:51:07.829Z,3.80
2024-04-14T21:53:36.503Z,4.07
2024-04-14T21:56:03.920Z,3.55
2024-04-14T21:58:34.144Z,4.18
2024-04-14T22:01:05.475Z,4.30
2024-04-14T22:03:32.440Z,3.17
2024-04-14T22:05:59.768Z,3.85
2024-04-14T22:08:31.173Z,3.75
2024-04-14T22:11:00.168Z,3.35
2024-04-14T22:13:30.109Z,3.58
2024-04-14T22:15:56.961Z,4.00
2024-04-14T22:18:24.123Z,4.22
2024-04-14T22:20:50.962Z,4.43
2024-04-14T22:23:17.763Z,4.18
2024-04-14T22:25:44.485Z,4.45
2024-04-14T22:28:11.276Z,3.83
2024-04-14T22:30:38.799Z,3.72
2024-04-14T22:33:06.308Z,3.35
2024-04-14T22:35:33.152Z,4.18
2024-04-14T22:38:01.695Z,4.22
2024-04-14T22:40:28.891Z,3.58
2024-04-14T22:42:55.991Z,4.15
2024-04-14T22:45:23.357Z,4.45
2024-04-14T22:47:51.031Z,3.58
2024-04-14T22:50:18.178Z,4.35
2024-04-14T22:52:44.917Z,4.40
2024-04-14T22:55:11.851Z,3.70
2024-04-14T22:57:38.803Z,4.35
2024-04-14T23:00:11.119Z,3.78
2024-04-14T23:02:38.213Z,3.65
2024-04-14T23:05:05.329Z,3.95
2024-04-14T23:07:32.029Z,3.95
2024-04-14T23:09:58.842Z,4.75
2024-04-14T23:12:25.872Z,4.38
2024-04-14T23:14:52.612Z,3.70
2024-04-14T23:17:19.354Z,4.13
2024-04-14T23:19:46.295Z,4.05
2024-04-14T23:22:13.029Z,4.13
2024-04-14T23:24:40.038Z,3.97
2024-04-14T23:27:06.763Z,3.75
2024-04-14T23:29:33.446Z,4.10
2024-04-14T23:32:00.763Z,4.03
2024-04-14T23:34:27.515Z,3.90
2024-04-14T23:36:56.520Z,4.10
2024-04-14T23:39:23.631Z,4.05
2024-04-14T23:41:50.633Z,3.67
2024-04-14T23:44:17.460Z,4.20
2024-04-14T23:46:44.435Z,3.92
2024-04-14T23:49:11.207Z,4.13
2024-04-14T23:51:38.062Z,4.25
2024-04-14T23:54:05.368Z,3.97
2024-04-14T23:56:32.117Z,3.90
2024-04-14T23:58:58.811Z,3.80
